Time;durP1;ratioP1;P1;durP2;ratioP2;P2;SDS_P1;SDS_P2;PMS_P1;PMS_P2;Temp;Humidity;BMP_temperature;BMP_pressure;BME280_temperature;BME280_humidity;BME280_pressure;Samples;Min_cycle;Max_cycle;Signal;HPM_P1;HPM_P2
2023/08/13 00:00:15;;;;;;;;;4.75;3.25;;;;;22.60;50.04;101555.97;5102225;27;45347;-47
2023/08/13 00:02:40;;;;;;;;;5.67;4.00;;;;;22.56;50.10;101551.81;5102617;27;45371;-46
2023/08/13 00:05:06;;;;;;;;;6.00;4.50;;;;;22.50;50.50;101551.50;5101898;27;60880;-48
2023/08/13 00:07:31;;;;;;;;;3.00;3.00;;;;;22.42;50.51;101552.19;5100106;27;45879;-47
2023/08/13 00:09:56;;;;;;;;;5.75;3.00;;;;;22.36;50.85;101542.75;5101720;27;45788;-46
2023/08/13 00:12:22;;;;;;;;;4.00;4.00;;;;;22.34;50.85;101547.41;5102640;27;45243;-46
2023/08/13 00:14:48;;;;;;;;;4.00;3.00;;;;;22.35;50.82;101542.88;5102220;27;45346;-47
2023/08/13 00:17:13;;;;;;;;;5.00;2.00;;;;;22.34;51.03;101533.03;5101246;27;71203;-50
2023/08/13 00:19:38;;;;;;;;;4.67;3.67;;;;;22.34;51.18;101541.16;5101021;27;58536;-46
2023/08/13 00:22:04;;;;;;;;;3.67;3.67;;;;;22.27;50.68;101541.69;5100067;27;49649;-50
2023/08/13 00:24:29;;;;;;;;;3.50;3.50;;;;;22.21;50.81;101522.41;5101664;27;45382;-47
2023/08/13 00:26:54;;;;;;;;;4.25;3.00;;;;;22.16;51.38;101524.66;5101689;27;53538;-46
2023/08/13 00:29:20;;;;;;;;;5.25;3.00;;;;;22.11;51.37;101527.75;5100783;27;72946;-47
2023/08/13 00:31:45;;;;;;;;;4.25;3.00;;;;;22.06;51.42;101521.88;5082957;27;68823;-48
2023/08/13 00:34:10;;;;;;;;;4.00;2.25;;;;;22.04;52.01;101529.31;5100907;27;67732;-46
2023/08/13 00:36:35;;;;;;;;;7.25;4.00;;;;;22.03;51.50;101533.88;5101234;27;67557;-46
2023/08/13 00:39:01;;;;;;;;;4.67;3.00;;;;;22.03;51.36;101527.59;5099359;27;71115;-46
2023/08/13 00:41:26;;;;;;;;;3.33;3.33;;;;;21.99;51.47;101527.00;5101688;27;45331;-45
2023/08/13 00:43:51;;;;;;;;;2.25;2.25;;;;;21.98;52.20;101526.16;5101719;27;45348;-46
2023/08/13 00:46:17;;;;;;;;;4.67;3.00;;;;;21.98;52.51;101520.72;5080869;27;64619;-48
2023/08/13 00:48:42;;;;;;;;;5.00;3.25;;;;;21.98;52.19;101523.44;5080033;27;70079;-46
2023/08/13 00:51:10;;;;;;;;;3.00;3.00;;;;;21.97;52.89;101524.41;5080416;28;63816;-46
2023/08/13 00:53:45;;;;;;;;;4.00;2.75;;;;;21.94;52.81;101522.00;5081215;28;45537;-46
2023/08/13 00:56:10;;;;;;;;;4.00;3.00;;;;;21.93;52.80;101522.97;5094925;27;46144;-48
2023/08/13 00:58:36;;;;;;;;;7.67;4.00;;;;;21.90;52.26;101528.69;5100208;27;67599;-46
2023/08/13 01:01:01;;;;;;;;;3.75;3.75;;;;;21.88;52.38;101522.53;5100787;27;66514;-49
2023/08/13 01:03:26;;;;;;;;;4.00;4.00;;;;;21.86;53.01;101518.22;5100470;27;67679;-48
2023/08/13 01:05:56;;;;;;;;;3.00;3.00;;;;;21.85;52.44;101517.38;5100712;27;62598;-47
2023/08/13 01:08:29;;;;;;;;;3.00;3.00;;;;;21.84;52.82;101510.25;5066633;28;45420;-47
2023/08/13 01:11:05;;;;;;;;;3.67;3.00;;;;;21.82;53.54;101514.91;5057800;27;46056;-46
2023/08/13 01:13:35;;;;;;;;;4.33;3.00;;;;;21.81;53.29;101518.63;5082140;27;45475;-46
2023/08/13 01:16:02;;;;;;;;;3.50;2.75;;;;;21.79;53.14;101512.50;5075318;27;46207;-46
2023/08/13 01:18:28;;;;;;;;;4.25;2.75;;;;;21.79;53.24;101517.91;5076351;28;45674;-47
2023/08/13 01:20:54;;;;;;;;;2.25;2.25;;;;;21.77;53.41;101511.75;5080377;28;54416;-47
2023/08/13 01:23:19;;;;;;;;;3.00;2.00;;;;;21.73;53.71;101513.88;5079887;28;65325;-46
2023/08/13 01:25:52;;;;;;;;;3.00;1.25;;;;;21.72;53.69;101520.28;5073523;27;46039;-46
2023/08/13 01:28:34;;;;;;;;;2.75;2.00;;;;;21.71;53.36;101510.44;5100009;27;45461;-45
2023/08/13 01:31:07;;;;;;;;;4.33;3.00;;;;;;;;5081591;27;45268;-45
2023/08/13 01:33:35;;;;;;;;;5.00;3.00;;;;;21.65;54.38;101510.97;5101023;27;45333;-50
2023/08/13 01:36:02;;;;;;;;;5.00;3.00;;;;;21.63;54.04;101515.66;5082613;27;45388;-48
2023/08/13 01:38:28;;;;;;;;;7.50;3.00;;;;;21.60;54.35;101503.25;5100954;27;45427;-48
2023/08/13 01:40:56;;;;;;;;;2.67;2.00;;;;;21.58;54.13;101512.50;5067171;27;45370;-49
2023/08/13 01:43:22;;;;;;;;;4.00;3.00;;;;;21.53;53.86;101510.13;5070946;28;45441;-47
2023/08/13 01:45:47;;;;;;;;;3.00;2.75;;;;;21.50;54.64;101513.13;5084544;27;52588;-46
2023/08/13 01:48:12;;;;;;;;;3.67;2.00;;;;;21.47;54.06;101506.13;5089205;27;45345;-46
2023/08/13 01:50:39;;;;;;;;;4.33;3.00;;;;;21.45;54.88;101508.09;5079470;27;66440;-47
2023/08/13 01:53:04;;;;;;;;;5.33;3.67;;;;;21.42;54.74;101508.38;5079932;27;45552;-46
2023/08/13 01:55:29;;;;;;;;;2.00;2.00;;;;;21.39;54.71;101510.47;5079985;27;45804;-48
2023/08/13 01:57:55;;;;;;;;;4.00;1.33;;;;;21.34;55.07;101510.00;5080363;27;45614;-47
2023/08/13 02:00:20;;;;;;;;;4.33;2.67;;;;;21.30;54.85;101504.84;5097836;27;46789;-48
2023/08/13 02:02:46;;;;;;;;;2.33;2.00;;;;;21.27;55.02;101510.50;5100526;27;45647;-47
2023/08/13 02:05:11;;;;;;;;;4.00;3.00;;;;;21.25;55.28;101515.22;5099744;27;60819;-46
2023/08/13 02:07:37;;;;;;;;;3.67;3.67;;;;;21.23;55.76;101514.47;5089680;27;45352;-48
2023/08/13 02:10:03;;;;;;;;;2.67;2.67;;;;;21.23;55.63;101513.63;5079270;27;45393;-47
2023/08/13 02:12:28;;;;;;;;;2.00;2.00;;;;;21.20;55.23;101514.72;5089844;27;45530;-47
2023/08/13 02:14:53;;;;;;;;;5.00;2.33;;;;;21.18;55.78;101513.13;5083206;27;45632;-47
2023/08/13 02:17:19;;;;;;;;;4.00;2.00;;;;;21.15;55.96;101514.25;5098164;27;52488;-48
2023/08/13 02:19:44;;;;;;;;;3.00;2.00;;;;;21.11;55.48;101510.09;5100350;27;45461;-45
2023/08/13 02:22:09;;;;;;;;;3.00;3.00;;;;;21.06;55.90;101517.75;5100156;27;48896;-46
2023/08/13 02:24:35;;;;;;;;;3.00;3.00;;;;;21.03;56.20;101524.25;5099755;27;51767;-48
2023/08/13 02:27:00;;;;;;;;;7.00;3.33;;;;;20.99;56.28;101512.84;5100198;27;45444;-46
2023/08/13 02:29:26;;;;;;;;;3.00;3.00;;;;;20.97;56.60;101522.06;5100462;27;45323;-47
2023/08/13 02:31:51;;;;;;;;;3.25;2.75;;;;;20.95;56.17;101522.19;5099355;27;68310;-47
2023/08/13 02:34:16;;;;;;;;;5.50;2.25;;;;;20.94;56.83;101517.75;5097349;27;70471;-48
2023/08/13 02:36:41;;;;;;;;;4.33;4.33;;;;;20.95;56.83;101505.09;5090062;27;54820;-47
2023/08/13 02:39:08;;;;;;;;;5.50;3.25;;;;;20.96;56.65;101507.69;5078983;27;52286;-46
2023/08/13 02:41:33;;;;;;;;;2.25;2.00;;;;;20.96;56.79;101501.41;5081441;28;45612;-44
2023/08/13 02:43:59;;;;;;;;;6.25;2.25;;;;;20.95;56.90;101500.56;5083010;27;45260;-46
2023/08/13 02:46:26;;;;;;;;;2.75;2.00;;;;;20.95;56.64;101496.97;5083873;27;45358;-45
2023/08/13 02:48:55;;;;;;;;;5.00;3.33;;;;;20.94;56.70;101492.59;5078221;27;45520;-49
2023/08/13 02:51:22;;;;;;;;;4.67;4.00;;;;;20.93;57.51;101502.53;5074042;27;45639;-47
2023/08/13 02:53:47;;;;;;;;;6.00;2.00;;;;;20.93;56.90;101496.25;5085142;27;45357;-46
2023/08/13 02:56:12;;;;;;;;;3.25;3.00;;;;;20.92;57.50;101491.84;5082668;27;45177;-45
2023/08/13 02:58:38;;;;;;;;;1.00;1.00;;;;;20.92;57.27;101491.84;5082309;27;56361;-45
2023/08/13 03:01:04;;;;;;;;;2.25;2.00;;;;;20.91;57.13;101482.88;5082437;27;60354;-46
2023/08/13 03:03:30;;;;;;;;;7.00;3.00;;;;;20.90;57.69;101491.97;5082787;27;45339;-48
2023/08/13 03:05:55;;;;;;;;;3.00;3.00;;;;;20.88;57.93;101488.53;5085274;27;45351;-47
2023/08/13 03:08:20;;;;;;;;;4.00;3.00;;;;;20.88;57.73;101488.53;5103067;27;45793;-47
2023/08/13 03:10:46;;;;;;;;;2.00;2.00;;;;;20.88;57.67;101490.38;5102956;27;45407;-46
2023/08/13 03:13:11;;;;;;;;;2.75;2.75;;;;;20.85;57.96;101482.53;5102116;27;70778;-48
2023/08/13 03:15:36;;;;;;;;;2.00;2.00;;;;;20.82;58.25;101479.09;5102332;27;69397;-46
2023/08/13 03:18:02;;;;;;;;;3.00;3.00;;;;;20.80;57.97;101474.78;5102123;27;64311;-46
2023/08/13 03:20:27;;;;;;;;;6.00;4.50;;;;;20.76;58.10;101485.00;5103218;27;45371;-46
2023/08/13 03:22:53;;;;;;;;;7.00;3.50;;;;;20.73;58.12;101482.56;5072067;27;50008;-46
2023/08/13 03:25:18;;;;;;;;;3.75;2.00;;;;;20.71;58.31;101486.38;5101799;27;70558;-46
2023/08/13 03:27:44;;;;;;;;;5.00;2.00;;;;;20.67;58.41;101475.75;5101747;27;64010;-47
2023/08/13 03:30:09;;;;;;;;;5.00;1.33;;;;;20.65;59.08;101477.75;5102998;27;45352;-46
2023/08/13 03:32:35;;;;;;;;;2.00;2.00;;;;;20.62;58.97;101477.13;5102703;27;46277;-46
2023/08/13 03:35:01;;;;;;;;;3.00;3.00;;;;;20.58;59.12;101487.31;5075879;28;45473;-49
2023/08/13 03:37:26;;;;;;;;;3.00;2.67;;;;;20.56;59.27;101489.31;5098064;27;45306;-47
2023/08/13 03:39:52;;;;;;;;;5.33;4.00;;;;;20.55;59.12;101484.88;5100168;27;69070;-46
2023/08/13 03:42:17;;;;;;;;;5.00;4.25;;;;;20.53;59.25;101488.69;5101628;27;45489;-47
2023/08/13 03:44:43;;;;;;;;;5.75;3.00;;;;;20.48;59.30;101484.53;5094732;27;69841;-46
2023/08/13 03:47:08;;;;;;;;;4.00;3.00;;;;;20.47;59.74;101492.78;5066470;27;45316;-45
2023/08/13 03:49:33;;;;;;;;;2.67;2.67;;;;;20.45;59.80;101481.22;5102770;27;45341;-46
2023/08/13 03:51:59;;;;;;;;;2.00;2.00;;;;;20.41;60.07;101490.56;5101780;27;56945;-46
2023/08/13 03:54:25;;;;;;;;;7.67;3.00;;;;;20.38;59.51;101482.72;5101753;27;45420;-47
2023/08/13 03:56:50;;;;;;;;;2.67;2.67;;;;;20.36;59.62;101480.09;5101169;27;47611;-46
2023/08/13 03:59:15;;;;;;;;;3.75;3.75;;;;;20.33;59.66;101475.81;5101990;27;45563;-47
2023/08/13 04:01:41;;;;;;;;;2.75;2.00;;;;;20.33;59.70;101481.22;5101970;27;46255;-45
2023/08/13 04:04:06;;;;;;;;;4.00;3.00;;;;;20.31;60.16;101477.81;5101723;27;70433;-45
2023/08/13 04:06:32;;;;;;;;;2.00;2.00;;;;;20.29;59.61;101482.44;5101568;27;45295;-48
2023/08/13 04:08:57;;;;;;;;;4.00;2.00;;;;;20.22;59.40;101481.25;5082139;27;45527;-45
2023/08/13 04:11:22;;;;;;;;;2.00;2.00;;;;;20.19;60.24;101481.47;5080709;28;74760;-46
2023/08/13 04:13:48;;;;;;;;;5.25;1.50;;;;;20.16;59.89;101482.56;5080135;27;68014;-46
2023/08/13 04:16:13;;;;;;;;;2.00;2.00;;;;;20.14;60.64;101484.56;5083380;27;45327;-48
2023/08/13 04:18:38;;;;;;;;;5.67;4.00;;;;;20.10;60.81;101482.22;5102349;27;45409;-46
2023/08/13 04:21:04;;;;;;;;;3.33;2.00;;;;;20.07;61.04;101483.31;5100893;27;72135;-47
2023/08/13 04:23:29;;;;;;;;;2.00;2.00;;;;;20.06;60.35;101489.69;5100995;27;72296;-48
2023/08/13 04:25:54;;;;;;;;;3.00;3.00;;;;;20.06;61.09;101489.69;5101945;27;45436;-48
2023/08/13 04:28:20;;;;;;;;;7.67;3.00;;;;;20.03;61.48;101492.66;5101940;27;45728;-48
2023/08/13 04:30:45;;;;;;;;;1.33;1.33;;;;;19.99;61.46;101492.03;5101019;27;71705;-48
2023/08/13 04:33:10;;;;;;;;;4.67;3.00;;;;;19.98;61.52;101497.56;5098724;27;72000;-48
2023/08/13 04:35:36;;;;;;;;;2.25;2.25;;;;;19.96;61.77;101494.13;5102182;27;45214;-50
2023/08/13 04:38:01;;;;;;;;;4.00;2.00;;;;;19.94;61.40;101494.22;5100944;27;68683;-50
2023/08/13 04:40:26;;;;;;;;;3.67;3.00;;;;;19.93;61.71;101499.75;5100626;27;75130;-50
2023/08/13 04:42:51;;;;;;;;;2.00;2.00;;;;;19.91;61.92;101497.19;5101333;27;60587;-48
2023/08/13 04:45:17;;;;;;;;;4.00;2.00;;;;;19.91;61.75;101497.19;5089932;27;62571;-50
2023/08/13 04:47:42;;;;;;;;;3.00;3.00;;;;;19.91;61.65;101496.34;5080819;27;45571;-50
2023/08/13 04:50:09;;;;;;;;;5.25;3.00;;;;;19.92;62.05;101490.81;5099110;27;46967;-50
2023/08/13 04:52:34;;;;;;;;;6.00;2.00;;;;;19.93;62.37;101497.94;5101274;27;45403;-49
2023/08/13 04:54:59;;;;;;;;;2.00;2.00;;;;;19.97;62.63;101495.81;5101478;27;45470;-46
2023/08/13 04:57:25;;;;;;;;;2.25;1.00;;;;;20.00;61.71;101492.91;5100689;27;64588;-50
2023/08/13 04:59:50;;;;;;;;;2.33;2.00;;;;;20.04;62.00;101499.78;5101051;27;60996;-48
2023/08/13 05:02:15;;;;;;;;;5.33;3.00;;;;;20.05;62.24;101492.53;5100987;27;64601;-49
2023/08/13 05:04:41;;;;;;;;;2.67;2.67;;;;;20.07;62.71;101495.97;5081405;27;69611;-49
2023/08/13 05:07:06;;;;;;;;;3.00;1.00;;;;;20.08;61.91;101498.53;5095490;27;46275;-47
2023/08/13 05:09:31;;;;;;;;;5.50;3.50;;;;;20.12;62.39;101491.06;5062929;28;46446;-45
2023/08/13 05:11:57;;;;;;;;;3.00;2.00;;;;;20.16;62.15;101489.84;5080198;28;45371;-45
2023/08/13 05:14:22;;;;;;;;;3.00;2.00;;;;;20.19;62.11;101496.81;5080945;27;45423;-46
2023/08/13 05:16:48;;;;;;;;;2.50;2.50;;;;;20.22;61.78;101499.28;5099329;27;45385;-45
2023/08/13 05:19:13;;;;;;;;;5.00;2.33;;;;;20.24;62.27;101497.31;5100844;27;45667;-46
2023/08/13 05:21:38;;;;;;;;;3.00;3.00;;;;;20.26;62.27;101493.53;5064053;27;68819;-45
2023/08/13 05:24:04;;;;;;;;;3.00;3.00;;;;;20.22;61.71;101500.16;5099952;27;67637;-45
2023/08/13 05:26:30;;;;;;;;;2.50;1.25;;;;;20.23;62.45;101488.34;5100583;27;45296;-49
2023/08/13 05:28:55;;;;;;;;;7.25;3.50;;;;;20.26;63.33;101498.03;5100990;27;45370;-48
2023/08/13 05:31:20;;;;;;;;;2.00;2.00;;;;;20.22;61.42;101489.34;5100472;27;55845;-46
2023/08/13 05:33:46;;;;;;;;;6.33;2.33;;;;;20.21;62.19;101494.84;5100516;27;45343;-48
2023/08/13 05:36:11;;;;;;;;;1.00;0.00;;;;;20.21;62.49;101494.84;5100410;27;59710;-46
2023/08/13 05:38:36;;;;;;;;;2.50;2.00;;;;;20.19;62.76;101492.28;5100699;27;56647;-48
2023/08/13 05:41:01;;;;;;;;;8.00;2.00;;;;;20.17;62.57;101499.66;5098129;27;47516;-45
2023/08/13 05:43:27;;;;;;;;;2.00;2.00;;;;;20.16;62.68;101498.78;5100759;27;45427;-45
2023/08/13 05:45:52;;;;;;;;;4.00;1.00;;;;;20.19;62.26;101497.69;5084659;27;45365;-46
2023/08/13 05:48:18;;;;;;;;;7.00;3.00;;;;;20.24;62.43;101503.56;5080030;28;45518;-45
2023/08/13 05:50:43;;;;;;;;;4.00;2.00;;;;;20.32;63.16;101511.06;5079456;28;61937;-45
2023/08/13 05:53:08;;;;;;;;;4.00;3.00;;;;;20.40;62.84;101510.44;5080262;27;45265;-45
2023/08/13 05:55:34;;;;;;;;;3.33;2.67;;;;;20.48;62.51;101513.38;5079828;27;67486;-45
2023/08/13 05:57:59;;;;;;;;;6.00;3.25;;;;;20.57;62.67;101507.25;5100216;27;45397;-46
2023/08/13 06:00:25;;;;;;;;;7.00;3.67;;;;;20.63;62.04;101505.88;5099329;27;73344;-46
2023/08/13 06:02:50;;;;;;;;;2.00;2.00;;;;;20.62;62.11;101510.44;5071273;28;45438;-46
2023/08/13 06:05:16;;;;;;;;;3.67;2.00;;;;;20.64;62.22;101516.56;5097539;27;55923;-46
2023/08/13 06:07:41;;;;;;;;;5.00;3.67;;;;;20.70;61.78;101511.66;5088366;27;67792;-49
2023/08/13 06:10:07;;;;;;;;;2.67;2.00;;;;;20.76;62.13;101516.59;5078886;27;68567;-46
2023/08/13 06:12:33;;;;;;;;;5.67;2.67;;;;;20.83;61.96;101506.97;5080026;27;45372;-47
2023/08/13 06:14:58;;;;;;;;;4.33;3.00;;;;;20.90;61.97;101510.00;5100162;27;45359;-46
2023/08/13 06:17:24;;;;;;;;;6.33;2.00;;;;;20.94;61.64;101509.66;5101775;27;73303;-47
2023/08/13 06:19:50;;;;;;;;;4.00;2.00;;;;;20.99;61.61;101511.97;5104057;27;45516;-48
2023/08/13 06:22:15;;;;;;;;;1.25;1.00;;;;;21.06;61.34;101513.16;5103901;27;45328;-47
2023/08/13 06:24:40;;;;;;;;;3.00;1.33;;;;;21.17;61.30;101514.13;5104084;27;45361;-46
2023/08/13 06:27:06;;;;;;;;;3.00;2.00;;;;;21.26;60.91;101516.06;5103776;27;45999;-50
2023/08/13 06:29:31;;;;;;;;;2.00;2.00;;;;;21.28;60.00;101511.38;5104074;27;45493;-46
2023/08/13 06:31:57;;;;;;;;;1.00;1.00;;;;;21.35;60.45;101517.13;5100896;27;60921;-46
2023/08/13 06:34:22;;;;;;;;;2.00;2.00;;;;;21.42;60.04;101515.59;5102584;27;69906;-46
2023/08/13 06:36:47;;;;;;;;;4.33;2.33;;;;;21.45;60.28;101508.09;5103701;27;46538;-46
2023/08/13 06:39:13;;;;;;;;;1.50;1.50;;;;;21.56;59.73;101509.94;5103668;27;45659;-45
2023/08/13 06:41:38;;;;;;;;;2.33;1.67;;;;;21.71;59.70;101517.72;5104127;27;45480;-48
2023/08/13 06:44:04;;;;;;;;;4.00;4.00;;;;;21.86;59.28;101510.09;5101079;27;45531;-50
2023/08/13 06:46:30;;;;;;;;;3.33;2.33;;;;;22.16;59.26;101511.13;5083072;27;46113;-46
2023/08/13 06:48:55;;;;;;;;;2.00;2.00;;;;;22.76;58.50;101514.78;5097540;27;45339;-47
2023/08/13 06:51:20;;;;;;;;;4.67;2.33;;;;;23.03;57.20;101517.81;5102457;27;65886;-46
2023/08/13 06:53:46;;;;;;;;;4.00;2.00;;;;;23.06;56.72;101517.53;5103711;27;45379;-47
2023/08/13 06:56:11;;;;;;;;;8.00;2.00;;;;;23.08;56.15;101512.84;5102432;27;67345;-46
2023/08/13 06:58:36;;;;;;;;;3.50;1.00;;;;;23.25;56.12;101508.59;5101858;27;45326;-48
2023/08/13 07:01:02;;;;;;;;;2.67;2.67;;;;;23.54;55.64;101508.56;5103546;27;45420;-47
2023/08/13 07:03:28;;;;;;;;;5.33;2.00;;;;;24.12;55.02;101509.47;5103313;27;45338;-49
2023/08/13 07:05:53;;;;;;;;;2.75;2.00;;;;;24.87;54.24;101511.25;5100108;27;72562;-47
2023/08/13 07:08:18;;;;;;;;;2.00;2.00;;;;;25.54;52.30;101506.28;5085691;27;45364;-47
2023/08/13 07:10:44;;;;;;;;;2.50;2.00;;;;;26.01;50.52;101517.81;5093133;27;45628;-47
2023/08/13 07:13:09;;;;;;;;;1.00;1.00;;;;;26.95;49.95;101510.59;5095788;27;47632;-47
2023/08/13 07:15:34;;;;;;;;;2.50;2.00;;;;;28.31;47.83;101508.31;5092157;27;53926;-48
2023/08/13 07:18:00;;;;;;;;;1.50;1.50;;;;;29.21;46.04;101513.25;5097245;27;45376;-47
2023/08/13 07:20:26;;;;;;;;;2.00;2.00;;;;;29.86;44.05;101518.38;5093836;27;45404;-46
2023/08/13 07:22:52;;;;;;;;;2.00;2.00;;;;;30.77;42.66;101515.44;5098859;27;65414;-47
2023/08/13 07:25:19;;;;;;;;;1.00;1.00;;;;;32.49;41.60;101512.63;5097509;27;47129;-49
2023/08/13 07:27:44;;;;;;;;;1.25;1.00;;;;;33.39;38.84;101519.84;5098679;27;45653;-47
2023/08/13 07:30:10;;;;;;;;;4.75;2.25;;;;;33.66;36.82;101515.16;5103162;27;45341;-46
2023/08/13 07:32:37;;;;;;;;;5.50;2.75;;;;;33.86;35.59;101517.09;5102751;27;45354;-47
2023/08/13 07:35:02;;;;;;;;;2.00;0.50;;;;;33.87;32.25;101516.03;5102581;27;45434;-46
2023/08/13 07:37:28;;;;;;;;;3.00;0.50;;;;;34.31;34.63;101517.19;5070623;27;45502;-49
2023/08/13 07:39:54;;;;;;;;;0.00;0.00;;;;;34.89;33.85;101526.53;5102709;27;45356;-45
2023/08/13 07:42:19;;;;;;;;;1.00;0.50;;;;;35.63;33.28;101524.06;5102798;27;45608;-46
2023/08/13 07:44:45;;;;;;;;;2.25;1.00;;;;;35.67;32.42;101517.03;5097890;27;73455;-46
2023/08/13 07:47:12;;;;;;;;;0.75;0.50;;;;;35.40;31.86;101516.41;5100231;27;45448;-50
2023/08/13 07:49:37;;;;;;;;;1.00;0.00;;;;;35.41;31.31;101518.94;5102281;27;45916;-47
2023/08/13 07:52:03;;;;;;;;;2.00;2.00;;;;;35.65;31.67;101521.09;5101551;27;66667;-45
2023/08/13 07:54:28;;;;;;;;;2.25;1.25;;;;;34.93;32.04;101512.03;5102304;27;46264;-48
2023/08/13 07:56:53;;;;;;;;;3.00;0.75;;;;;33.54;32.09;101511.38;5102096;27;45405;-49
2023/08/13 07:59:19;;;;;;;;;4.50;1.25;;;;;32.18;33.71;101513.94;5102381;27;45777;-46
2023/08/13 08:01:44;;;;;;;;;0.00;0.00;;;;;31.21;35.02;101516.34;5102474;27;45515;-47
2023/08/13 08:04:10;;;;;;;;;1.00;1.00;;;;;30.42;36.41;101503.38;5099252;27;72874;-45
2023/08/13 08:06:35;;;;;;;;;1.25;0.75;;;;;29.86;36.63;101510.16;5098530;27;60003;-48
2023/08/13 08:09:00;;;;;;;;;2.00;0.50;;;;;29.42;37.20;101510.91;5081732;28;45276;-45
2023/08/13 08:11:27;;;;;;;;;2.50;1.25;;;;;29.08;38.41;101523.13;5081101;28;63868;-47
2023/08/13 08:13:52;;;;;;;;;3.75;1.00;;;;;29.44;38.20;101511.56;5081209;28;62083;-45
2023/08/13 08:16:18;;;;;;;;;2.50;0.25;;;;;30.08;37.61;101508.41;5096569;27;57443;-46
2023/08/13 08:18:43;;;;;;;;;0.75;0.75;;;;;30.85;37.10;101504.31;5099653;27;62612;-48
2023/08/13 08:21:09;;;;;;;;;0.00;0.00;;;;;31.23;36.00;101508.75;5101786;27;45256;-46
2023/08/13 08:23:34;;;;;;;;;2.50;0.50;;;;;31.00;35.58;101511.66;5100776;27;73612;-46
2023/08/13 08:25:59;;;;;;;;;1.00;1.00;;;;;30.51;35.89;101515.97;5101653;27;45482;-48
2023/08/13 08:28:28;;;;;;;;;4.75;1.25;;;;;30.29;36.47;101504.06;5101953;27;45900;-46
2023/08/13 08:30:53;;;;;;;;;1.00;1.00;;;;;30.25;37.01;101510.97;5101904;27;45358;-45
2023/08/13 08:33:21;;;;;;;;;3.00;1.75;;;;;30.14;36.72;101513.13;5099992;27;58261;-48
2023/08/13 08:35:46;;;;;;;;;1.00;1.00;;;;;30.53;36.54;101511.13;5100152;27;45476;-48
2023/08/13 08:38:13;;;;;;;;;1.00;1.00;;;;;30.77;35.73;101509.94;5101607;27;45417;-48
2023/08/13 08:40:38;;;;;;;;;2.00;2.00;;;;;30.72;36.12;101506.09;5069287;27;45424;-48
2023/08/13 08:43:03;;;;;;;;;3.75;0.75;;;;;30.66;35.31;101493.97;5101306;27;69216;-47
2023/08/13 08:45:29;;;;;;;;;1.00;1.00;;;;;30.59;35.35;101502.13;5090304;27;45680;-47
2023/08/13 08:47:55;;;;;;;;;3.00;1.50;;;;;30.63;34.40;101500.69;5072024;27;45449;-47
2023/08/13 08:50:20;;;;;;;;;1.25;0.50;;;;;30.63;35.64;101494.38;5084627;27;64645;-47
2023/08/13 08:52:47;;;;;;;;;2.50;0.50;;;;;30.54;35.94;101496.38;5083823;27;50106;-47
2023/08/13 08:55:12;;;;;;;;;0.75;0.75;;;;;30.52;36.03;101493.81;5101023;27;45335;-47
2023/08/13 08:57:38;;;;;;;;;1.75;0.75;;;;;30.99;35.71;101494.34;5100672;27;56633;-48
2023/08/13 09:00:04;;;;;;;;;4.50;1.00;;;;;31.57;34.62;101487.88;5101586;27;45414;-47
2023/08/13 09:02:30;;;;;;;;;0.00;0.00;;;;;31.76;34.76;101491.00;5082991;27;47211;-49
2023/08/13 09:04:56;;;;;;;;;0.75;0.75;;;;;31.82;34.15;101496.59;5100598;27;71582;-47
2023/08/13 09:07:30;;;;;;;;;2.25;0.00;;;;;31.98;34.09;101492.66;5093058;27;45529;-46
2023/08/13 09:09:55;;;;;;;;;1.00;0.75;;;;;32.25;33.29;101492.81;5077201;27;45322;-47
2023/08/13 09:12:20;;;;;;;;;1.00;0.00;;;;;32.87;32.94;101490.09;5100512;27;69304;-47
2023/08/13 09:14:45;;;;;;;;;1.50;1.50;;;;;33.74;32.27;101501.19;5100529;27;69161;-47
2023/08/13 09:17:14;;;;;;;;;0.00;0.00;;;;;34.68;31.45;101495.38;5074078;28;45494;-50
2023/08/13 09:19:40;;;;;;;;;2.00;0.00;;;;;35.80;30.40;101490.28;5065939;27;45464;-49
2023/08/13 09:22:06;;;;;;;;;1.25;0.00;;;;;36.68;29.17;101488.22;5082091;27;69322;-48
2023/08/13 09:24:36;;;;;;;;;0.75;0.00;;;;;37.14;28.36;101491.38;5067609;27;45672;-48
2023/08/13 09:27:02;;;;;;;;;0.00;0.00;;;;;37.06;27.69;101496.16;5100451;27;45326;-49
2023/08/13 09:29:31;;;;;;;;;1.25;0.25;;;;;37.09;26.46;101481.00;5100830;27;45327;-51
2023/08/13 09:31:58;;;;;;;;;1.00;1.00;;;;;37.10;26.22;101487.41;5082819;27;46243;-50
2023/08/13 09:34:25;;;;;;;;;2.25;0.75;;;;;36.44;25.24;101488.13;5098895;27;45551;-47
2023/08/13 09:36:54;;;;;;;;;0.50;0.00;;;;;35.97;26.64;101480.34;5101006;27;45411;-48
2023/08/13 09:39:24;;;;;;;;;1.75;0.00;;;;;36.00;26.31;101481.81;5063735;28;45453;-48
2023/08/13 09:41:50;;;;;;;;;0.00;0.00;;;;;36.01;26.90;101484.34;5062190;28;45332;-52
2023/08/13 09:44:18;;;;;;;;;1.20;0.20;;;;;36.68;26.99;101485.44;5096550;27;45348;-48
2023/08/13 09:46:45;;;;;;;;;3.25;0.75;;;;;37.97;25.96;101475.63;5080039;27;45272;-49
2023/08/13 09:49:12;;;;;;;;;0.00;0.00;;;;;38.57;23.19;101470.75;5080204;28;45497;-53
2023/08/13 09:51:38;;;;;;;;;0.75;0.00;;;;;38.26;24.88;101469.31;5077320;27;73515;-50
2023/08/13 09:54:13;;;;;;;;;2.00;0.80;;;;;37.68;24.01;101469.09;5100359;27;45327;-48
2023/08/13 09:56:40;;;;;;;;;1.50;1.50;;;;;37.29;24.28;101468.72;5069240;27;45440;-48
2023/08/13 09:59:06;;;;;;;;;0.00;0.00;;;;;37.85;24.08;101463.72;5100752;27;45370;-49
2023/08/13 10:01:32;;;;;;;;;0.00;0.00;;;;;38.37;22.71;101458.16;5081306;27;65626;-49
2023/08/13 10:03:58;;;;;;;;;0.25;0.00;;;;;38.59;21.74;101460.22;5100532;27;45831;-51
2023/08/13 10:06:24;;;;;;;;;0.00;0.00;;;;;38.77;22.65;101461.97;5079482;27;45557;-49
2023/08/13 10:08:50;;;;;;;;;0.00;0.00;;;;;38.18;23.44;101460.22;5079474;28;45373;-50
2023/08/13 10:11:15;;;;;;;;;0.50;0.00;;;;;36.82;24.43;101466.69;5061596;28;46088;-46
2023/08/13 10:13:41;;;;;;;;;0.25;0.00;;;;;35.35;25.35;101466.50;5061130;28;59993;-49
2023/08/13 10:16:07;;;;;;;;;0.00;0.00;;;;;34.72;27.16;101476.44;5092791;27;68279;-50
2023/08/13 10:18:34;;;;;;;;;0.50;0.00;;;;;34.04;27.70;101470.38;5099852;27;62291;-49
2023/08/13 10:20:59;;;;;;;;;2.00;0.00;;;;;33.26;27.63;101465.56;5098735;27;46907;-51
2023/08/13 10:23:26;;;;;;;;;0.50;0.00;;;;;32.66;28.34;101472.66;5099218;27;45387;-49
2023/08/13 10:25:52;;;;;;;;;0.00;0.00;;;;;31.83;29.14;101461.66;5099150;27;45471;-50
2023/08/13 10:28:27;;;;;;;;;0.25;0.00;;;;;31.13;30.50;101462.41;5100868;27;45501;-50
2023/08/13 10:31:27;;;;;;;;;1.50;0.00;;;;;30.33;30.87;101466.97;5100466;27;46242;-51
2023/08/13 10:34:09;;;;;;;;;0.25;0.00;;;;;29.84;31.93;101458.25;5100363;27;45460;-47
2023/08/13 10:37:01;;;;;;;;;1.00;0.00;;;;;30.37;32.31;101460.03;5080310;27;45436;-50
2023/08/13 10:39:38;;;;;;;;;0.00;0.00;;;;;32.44;31.16;101460.94;5082497;27;45504;-49
2023/08/13 10:42:26;;;;;;;;;0.25;0.25;;;;;34.31;29.42;101450.94;5081876;27;46070;-49
2023/08/13 10:44:53;;;;;;;;;0.25;0.25;;;;;36.38;26.56;101456.66;5051582;27;45466;-46
2023/08/13 10:47:18;;;;;;;;;1.00;1.00;;;;;37.30;25.97;101451.88;5062331;28;45376;-50
2023/08/13 10:49:44;;;;;;;;;0.00;0.00;;;;;37.06;25.52;101454.59;5078762;28;69604;-49
2023/08/13 10:52:09;;;;;;;;;0.75;0.00;;;;;37.39;25.50;101447.69;5078907;27;46251;-51
2023/08/13 10:54:34;;;;;;;;;0.00;0.00;;;;;38.01;24.18;101446.28;5088924;27;53308;-52
2023/08/13 10:57:01;;;;;;;;;0.00;0.00;;;;;38.43;23.60;101436.88;5067122;27;69336;-51
2023/08/13 10:59:34;;;;;;;;;1.50;0.00;;;;;38.03;23.48;101444.13;5100204;27;45522;-51
2023/08/13 11:02:09;;;;;;;;;0.00;0.00;;;;;37.46;25.09;101446.69;5100371;27;45550;-50
2023/08/13 11:04:35;;;;;;;;;0.00;0.00;;;;;37.08;24.16;101441.34;5071963;28;45445;-48
2023/08/13 11:07:01;;;;;;;;;0.00;0.00;;;;;36.33;24.62;101433.50;5067629;28;66688;-49
2023/08/13 11:09:26;;;;;;;;;1.50;0.25;;;;;35.32;24.87;101431.81;5099212;27;67991;-47
2023/08/13 11:11:52;;;;;;;;;0.00;0.00;;;;;34.28;26.91;101432.06;5103794;27;47335;-46
2023/08/13 11:14:18;;;;;;;;;0.00;0.00;;;;;33.60;27.21;101420.38;5102894;27;71189;-50
2023/08/13 11:16:47;;;;;;;;;1.25;0.00;;;;;34.24;26.82;101428.88;5102487;27;68064;-47
2023/08/13 11:19:12;;;;;;;;;1.00;0.25;;;;;35.16;26.45;101432.38;5103168;27;45462;-51
2023/08/13 11:21:37;;;;;;;;;1.00;0.00;;;;;36.13;25.71;101433.75;5103010;27;47116;-49